sensor_id;sensor_type;location;lat;lon;timestamp;P1;durP1;ratioP1;P2;durP2;ratioP2
47589;SDS011;33316;52.298;9.056;2023-02-19T00:03:38;7.55;;;4.88;;
47589;SDS011;33316;52.298;9.056;2023-02-19T00:06:10;7.20;;;5.35;;
47589;SDS011;33316;52.298;9.056;2023-02-19T00:08:46;6.53;;;5.22;;
47589;SDS011;33316;52.298;9.056;2023-02-19T00:11:16;7.90;;;6.15;;
47589;SDS011;33316;52.298;9.056;2023-02-19T00:13:45;9.25;;;6.18;;
47589;SDS011;33316;52.298;9.056;2023-02-19T00:16:15;10.60;;;6.07;;
47589;SDS011;33316;52.298;9.056;2023-02-19T00:18:48;10.18;;;5.97;;
47589;SDS011;33316;52.298;9.056;2023-02-19T00:21:20;6.82;;;5.05;;
47589;SDS011;33316;52.298;9.056;2023-02-19T00:23:50;9.60;;;6.25;;
47589;SDS011;33316;52.298;9.056;2023-02-19T00:26:17;9.00;;;6.07;;
47589;SDS011;33316;52.298;9.056;2023-02-19T00:28:44;8.52;;;5.63;;
47589;SDS011;33316;52.298;9.056;2023-02-19T00:31:15;9.23;;;6.25;;
47589;SDS011;33316;52.298;9.056;2023-02-19T00:33:43;8.20;;;5.28;;
47589;SDS011;33316;52.298;9.056;2023-02-19T00:36:09;10.43;;;6.13;;
47589;SDS011;33316;52.298;9.056;2023-02-19T00:38:43;8.77;;;5.95;;
47589;SDS011;33316;52.298;9.056;2023-02-19T00:41:10;8.23;;;5.65;;
47589;SDS011;33316;52.298;9.056;2023-02-19T00:43:46;8.93;;;5.00;;
47589;SDS011;33316;52.298;9.056;2023-02-19T00:46:22;7.55;;;4.70;;
47589;SDS011;33316;52.298;9.056;2023-02-19T00:48:53;9.35;;;5.22;;
47589;SDS011;33316;52.298;9.056;2023-02-19T00:51:21;7.18;;;4.97;;
47589;SDS011;33316;52.298;9.056;2023-02-19T00:53:58;15.00;;;6.35;;
47589;SDS011;33316;52.298;9.056;2023-02-19T00:56:25;8.88;;;6.43;;
47589;SDS011;33316;52.298;9.056;2023-02-19T00:58:51;11.75;;;7.30;;
47589;SDS011;33316;52.298;9.056;2023-02-19T01:01:22;10.43;;;7.07;;
47589;SDS011;33316;52.298;9.056;2023-02-19T01:03:50;10.38;;;6.35;;
47589;SDS011;33316;52.298;9.056;2023-02-19T01:06:17;10.60;;;6.53;;
47589;SDS011;33316;52.298;9.056;2023-02-19T01:08:45;11.82;;;6.75;;
47589;SDS011;33316;52.298;9.056;2023-02-19T01:11:14;11.27;;;6.18;;
47589;SDS011;33316;52.298;9.056;2023-02-19T01:13:44;10.80;;;6.45;;
47589;SDS011;33316;52.298;9.056;2023-02-19T01:19:12;8.05;;;5.60;;
47589;SDS011;33316;52.298;9.056;2023-02-19T01:21:39;10.13;;;6.47;;
47589;SDS011;33316;52.298;9.056;2023-02-19T01:24:06;10.02;;;7.03;;
47589;SDS011;33316;52.298;9.056;2023-02-19T01:26:34;11.18;;;6.45;;
47589;SDS011;33316;52.298;9.056;2023-02-19T01:29:01;9.88;;;6.55;;
47589;SDS011;33316;52.298;9.056;2023-02-19T01:31:43;10.18;;;6.50;;
47589;SDS011;33316;52.298;9.056;2023-02-19T01:34:10;11.95;;;6.30;;
47589;SDS011;33316;52.298;9.056;2023-02-19T01:36:37;9.52;;;5.97;;
47589;SDS011;33316;52.298;9.056;2023-02-19T01:39:06;11.73;;;6.20;;
47589;SDS011;33316;52.298;9.056;2023-02-19T01:41:38;8.00;;;5.53;;
47589;SDS011;33316;52.298;9.056;2023-02-19T01:44:06;9.15;;;5.68;;
47589;SDS011;33316;52.298;9.056;2023-02-19T01:47:06;9.88;;;5.95;;
47589;SDS011;33316;52.298;9.056;2023-02-19T01:49:34;10.27;;;6.80;;
47589;SDS011;33316;52.298;9.056;2023-02-19T01:52:07;11.52;;;6.90;;
47589;SDS011;33316;52.298;9.056;2023-02-19T01:54:39;8.85;;;6.00;;
47589;SDS011;33316;52.298;9.056;2023-02-19T01:57:11;11.00;;;6.55;;
47589;SDS011;33316;52.298;9.056;2023-02-19T01:59:42;11.43;;;5.72;;
47589;SDS011;33316;52.298;9.056;2023-02-19T02:02:13;7.40;;;4.82;;
47589;SDS011;33316;52.298;9.056;2023-02-19T02:04:41;10.23;;;5.80;;
47589;SDS011;33316;52.298;9.056;2023-02-19T02:07:08;9.07;;;6.20;;
47589;SDS011;33316;52.298;9.056;2023-02-19T02:09:49;11.68;;;6.47;;
47589;SDS011;33316;52.298;9.056;2023-02-19T02:12:35;9.93;;;6.25;;
47589;SDS011;33316;52.298;9.056;2023-02-19T02:15:06;7.90;;;5.25;;
47589;SDS011;33316;52.298;9.056;2023-02-19T02:17:35;7.55;;;6.05;;
47589;SDS011;33316;52.298;9.056;2023-02-19T02:20:25;10.10;;;5.40;;
47589;SDS011;33316;52.298;9.056;2023-02-19T02:23:04;8.90;;;5.37;;
47589;SDS011;33316;52.298;9.056;2023-02-19T02:25:56;8.38;;;5.10;;
47589;SDS011;33316;52.298;9.056;2023-02-19T02:31:44;6.50;;;4.47;;
47589;SDS011;33316;52.298;9.056;2023-02-19T02:34:17;8.15;;;4.85;;
47589;SDS011;33316;52.298;9.056;2023-02-19T02:36:52;7.15;;;4.70;;
47589;SDS011;33316;52.298;9.056;2023-02-19T02:39:22;6.47;;;4.03;;
47589;SDS011;33316;52.298;9.056;2023-02-19T02:41:54;7.75;;;4.45;;
47589;SDS011;33316;52.298;9.056;2023-02-19T02:44:36;7.25;;;4.20;;
47589;SDS011;33316;52.298;9.056;2023-02-19T02:47:28;6.47;;;4.50;;
47589;SDS011;33316;52.298;9.056;2023-02-19T02:50:14;6.65;;;4.00;;
47589;SDS011;33316;52.298;9.056;2023-02-19T02:55:30;7.03;;;3.88;;
47589;SDS011;33316;52.298;9.056;2023-02-19T02:58:00;5.70;;;3.97;;
47589;SDS011;33316;52.298;9.056;2023-02-19T03:00:31;6.13;;;3.58;;
47589;SDS011;33316;52.298;9.056;2023-02-19T03:03:15;7.90;;;4.18;;
47589;SDS011;33316;52.298;9.056;2023-02-19T03:05:51;6.35;;;4.15;;
47589;SDS011;33316;52.298;9.056;2023-02-19T03:08:24;7.60;;;4.72;;
47589;SDS011;33316;52.298;9.056;2023-02-19T03:10:55;5.53;;;4.00;;
47589;SDS011;33316;52.298;9.056;2023-02-19T03:13:49;6.55;;;4.38;;
47589;SDS011;33316;52.298;9.056;2023-02-19T03:16:36;6.78;;;4.60;;
47589;SDS011;33316;52.298;9.056;2023-02-19T03:19:26;7.53;;;5.00;;
47589;SDS011;33316;52.298;9.056;2023-02-19T03:21:56;8.15;;;5.30;;
47589;SDS011;33316;52.298;9.056;2023-02-19T03:24:33;8.02;;;5.07;;
47589;SDS011;33316;52.298;9.056;2023-02-19T03:27:20;7.63;;;4.93;;
47589;SDS011;33316;52.298;9.056;2023-02-19T03:29:53;8.52;;;5.15;;
47589;SDS011;33316;52.298;9.056;2023-02-19T03:32:26;9.07;;;5.35;;
47589;SDS011;33316;52.298;9.056;2023-02-19T03:34:59;9.02;;;5.82;;
47589;SDS011;33316;52.298;9.056;2023-02-19T03:37:34;7.43;;;5.15;;
47589;SDS011;33316;52.298;9.056;2023-02-19T03:40:07;8.32;;;5.18;;
47589;SDS011;33316;52.298;9.056;2023-02-19T03:42:35;7.43;;;5.00;;
47589;SDS011;33316;52.298;9.056;2023-02-19T03:45:18;8.98;;;5.78;;
47589;SDS011;33316;52.298;9.056;2023-02-19T03:47:58;10.25;;;5.82;;
47589;SDS011;33316;52.298;9.056;2023-02-19T03:50:35;9.77;;;5.80;;
47589;SDS011;33316;52.298;9.056;2023-02-19T03:53:23;9.60;;;6.00;;
47589;SDS011;33316;52.298;9.056;2023-02-19T03:56:03;8.20;;;5.57;;
47589;SDS011;33316;52.298;9.056;2023-02-19T03:58:34;8.75;;;6.00;;
47589;SDS011;33316;52.298;9.056;2023-02-19T04:01:09;9.02;;;5.93;;
47589;SDS011;33316;52.298;9.056;2023-02-19T04:03:44;9.88;;;6.00;;
47589;SDS011;33316;52.298;9.056;2023-02-19T04:06:17;9.73;;;5.97;;
47589;SDS011;33316;52.298;9.056;2023-02-19T04:08:49;11.88;;;7.25;;
47589;SDS011;33316;52.298;9.056;2023-02-19T04:11:19;11.85;;;7.65;;
47589;SDS011;33316;52.298;9.056;2023-02-19T04:13:50;12.25;;;8.38;;
47589;SDS011;33316;52.298;9.056;2023-02-19T04:16:25;11.68;;;8.05;;
47589;SDS011;33316;52.298;9.056;2023-02-19T04:19:01;12.18;;;7.85;;
47589;SDS011;33316;52.298;9.056;2023-02-19T04:21:35;10.63;;;6.95;;
47589;SDS011;33316;52.298;9.056;2023-02-19T04:24:05;12.27;;;7.63;;
47589;SDS011;33316;52.298;9.056;2023-02-19T04:26:35;12.23;;;8.13;;
47589;SDS011;33316;52.298;9.056;2023-02-19T04:29:05;14.57;;;9.03;;
47589;SDS011;33316;52.298;9.056;2023-02-19T04:31:33;14.50;;;8.52;;
47589;SDS011;33316;52.298;9.056;2023-02-19T04:34:20;12.38;;;8.00;;
47589;SDS011;33316;52.298;9.056;2023-02-19T04:36:53;13.20;;;8.07;;
47589;SDS011;33316;52.298;9.056;2023-02-19T04:39:20;13.50;;;8.15;;
47589;SDS011;33316;52.298;9.056;2023-02-19T04:41:47;10.85;;;7.28;;
47589;SDS011;33316;52.298;9.056;2023-02-19T04:44:19;5.85;;;4.60;;
47589;SDS011;33316;52.298;9.056;2023-02-19T04:46:46;5.75;;;4.20;;
47589;SDS011;33316;52.298;9.056;2023-02-19T04:49:13;4.40;;;3.45;;
47589;SDS011;33316;52.298;9.056;2023-02-19T04:51:40;4.57;;;3.50;;
47589;SDS011;33316;52.298;9.056;2023-02-19T04:54:13;3.67;;;2.55;;
47589;SDS011;33316;52.298;9.056;2023-02-19T04:56:40;2.13;;;1.45;;
47589;SDS011;33316;52.298;9.056;2023-02-19T04:59:14;1.50;;;1.00;;
47589;SDS011;33316;52.298;9.056;2023-02-19T05:01:41;1.33;;;0.70;;
47589;SDS011;33316;52.298;9.056;2023-02-19T05:04:08;0.75;;;0.60;;
47589;SDS011;33316;52.298;9.056;2023-02-19T05:06:35;1.00;;;0.70;;
47589;SDS011;33316;52.298;9.056;2023-02-19T05:09:02;1.02;;;0.80;;
47589;SDS011;33316;52.298;9.056;2023-02-19T05:11:33;1.00;;;0.70;;
47589;SDS011;33316;52.298;9.056;2023-02-19T05:14:04;0.80;;;0.60;;
47589;SDS011;33316;52.298;9.056;2023-02-19T05:16:31;0.98;;;0.68;;
47589;SDS011;33316;52.298;9.056;2023-02-19T05:18:58;0.80;;;0.63;;
47589;SDS011;33316;52.298;9.056;2023-02-19T05:21:25;1.10;;;0.60;;
47589;SDS011;33316;52.298;9.056;2023-02-19T05:23:52;1.08;;;0.63;;
47589;SDS011;33316;52.298;9.056;2023-02-19T05:26:19;1.10;;;0.68;;
47589;SDS011;33316;52.298;9.056;2023-02-19T05:28:49;1.05;;;0.68;;
47589;SDS011;33316;52.298;9.056;2023-02-19T05:31:17;0.90;;;0.60;;
47589;SDS011;33316;52.298;9.056;2023-02-19T05:33:45;1.15;;;0.90;;
47589;SDS011;33316;52.298;9.056;2023-02-19T05:36:15;1.30;;;0.90;;
47589;SDS011;33316;52.298;9.056;2023-02-19T05:38:43;1.00;;;0.80;;
47589;SDS011;33316;52.298;9.056;2023-02-19T05:41:11;1.17;;;0.80;;
47589;SDS011;33316;52.298;9.056;2023-02-19T05:43:40;1.23;;;0.90;;
47589;SDS011;33316;52.298;9.056;2023-02-19T05:46:09;1.38;;;0.95;;
47589;SDS011;33316;52.298;9.056;2023-02-19T05:48:37;1.58;;;1.10;;
47589;SDS011;33316;52.298;9.056;2023-02-19T05:51:04;1.00;;;0.73;;
47589;SDS011;33316;52.298;9.056;2023-02-19T05:53:32;2.17;;;0.95;;
47589;SDS011;33316;52.298;9.056;2023-02-19T05:55:59;1.00;;;0.88;;
47589;SDS011;33316;52.298;9.056;2023-02-19T05:58:26;1.10;;;0.80;;
47589;SDS011;33316;52.298;9.056;2023-02-19T06:00:53;1.20;;;0.98;;
47589;SDS011;33316;52.298;9.056;2023-02-19T06:03:22;1.70;;;0.98;;
47589;SDS011;33316;52.298;9.056;2023-02-19T06:05:49;1.52;;;0.88;;
47589;SDS011;33316;52.298;9.056;2023-02-19T06:08:16;1.23;;;0.70;;
47589;SDS011;33316;52.298;9.056;2023-02-19T06:10:42;1.08;;;0.70;;
47589;SDS011;33316;52.298;9.056;2023-02-19T06:13:09;1.15;;;0.80;;
47589;SDS011;33316;52.298;9.056;2023-02-19T06:15:36;1.27;;;0.80;;
47589;SDS011;33316;52.298;9.056;2023-02-19T06:18:03;1.05;;;0.70;;
47589;SDS011;33316;52.298;9.056;2023-02-19T06:20:32;0.98;;;0.80;;
47589;SDS011;33316;52.298;9.056;2023-02-19T06:22:58;0.52;;;0.50;;
47589;SDS011;33316;52.298;9.056;2023-02-19T06:25:25;1.75;;;0.80;;
47589;SDS011;33316;52.298;9.056;2023-02-19T06:27:52;1.13;;;0.52;;
47589;SDS011;33316;52.298;9.056;2023-02-19T06:30:18;0.70;;;0.57;;
47589;SDS011;33316;52.298;9.056;2023-02-19T06:32:45;1.88;;;0.80;;
47589;SDS011;33316;52.298;9.056;2023-02-19T06:35:12;0.65;;;0.55;;
47589;SDS011;33316;52.298;9.056;2023-02-19T06:37:40;1.02;;;0.65;;
47589;SDS011;33316;52.298;9.056;2023-02-19T06:40:07;0.90;;;0.80;;
47589;SDS011;33316;52.298;9.056;2023-02-19T06:42:34;1.77;;;0.90;;
47589;SDS011;33316;52.298;9.056;2023-02-19T06:45:00;1.13;;;0.80;;
47589;SDS011;33316;52.298;9.056;2023-02-19T06:47:29;1.35;;;0.70;;
47589;SDS011;33316;52.298;9.056;2023-02-19T06:49:56;1.83;;;1.00;;
47589;SDS011;33316;52.298;9.056;2023-02-19T06:52:23;1.40;;;1.10;;
47589;SDS011;33316;52.298;9.056;2023-02-19T06:54:51;2.20;;;1.27;;
47589;SDS011;33316;52.298;9.056;2023-02-19T06:57:18;2.58;;;1.00;;
47589;SDS011;33316;52.298;9.056;2023-02-19T06:59:44;1.75;;;1.08;;
47589;SDS011;33316;52.298;9.056;2023-02-19T07:02:11;2.40;;;1.17;;
47589;SDS011;33316;52.298;9.056;2023-02-19T07:04:38;2.47;;;1.17;;
47589;SDS011;33316;52.298;9.056;2023-02-19T07:07:05;1.65;;;0.90;;
47589;SDS011;33316;52.298;9.056;2023-02-19T07:09:32;1.23;;;0.85;;
47589;SDS011;33316;52.298;9.056;2023-02-19T07:12:00;2.80;;;1.08;;
47589;SDS011;33316;52.298;9.056;2023-02-19T07:14:27;2.30;;;1.10;;
47589;SDS011;33316;52.298;9.056;2023-02-19T07:16:54;1.25;;;0.90;;
47589;SDS011;33316;52.298;9.056;2023-02-19T07:19:21;1.42;;;0.90;;
47589;SDS011;33316;52.298;9.056;2023-02-19T07:21:47;1.88;;;1.17;;
47589;SDS011;33316;52.298;9.056;2023-02-19T07:24:14;2.75;;;1.42;;
47589;SDS011;33316;52.298;9.056;2023-02-19T07:26:41;3.83;;;2.22;;
47589;SDS011;33316;52.298;9.056;2023-02-19T07:29:09;3.35;;;2.17;;
47589;SDS011;33316;52.298;9.056;2023-02-19T07:31:36;3.92;;;2.20;;
47589;SDS011;33316;52.298;9.056;2023-02-19T07:34:02;3.08;;;1.80;;
47589;SDS011;33316;52.298;9.056;2023-02-19T07:36:29;3.40;;;2.08;;
47589;SDS011;33316;52.298;9.056;2023-02-19T07:38:56;4.32;;;2.28;;
47589;SDS011;33316;52.298;9.056;2023-02-19T07:41:24;3.90;;;2.47;;
47589;SDS011;33316;52.298;9.056;2023-02-19T07:43:52;2.95;;;2.10;;
47589;SDS011;33316;52.298;9.056;2023-02-19T07:46:20;2.97;;;2.00;;
47589;SDS011;33316;52.298;9.056;2023-02-19T07:48:47;1.95;;;1.50;;
47589;SDS011;33316;52.298;9.056;2023-02-19T07:51:15;2.83;;;1.30;;
47589;SDS011;33316;52.298;9.056;2023-02-19T07:53:43;2.63;;;1.55;;
47589;SDS011;33316;52.298;9.056;2023-02-19T07:56:10;1.90;;;1.40;;
47589;SDS011;33316;52.298;9.056;2023-02-19T07:58:37;2.00;;;1.50;;
47589;SDS011;33316;52.298;9.056;2023-02-19T08:01:05;3.40;;;1.50;;
47589;SDS011;33316;52.298;9.056;2023-02-19T08:03:35;2.63;;;1.30;;
47589;SDS011;33316;52.298;9.056;2023-02-19T08:06:01;3.35;;;1.60;;
47589;SDS011;33316;52.298;9.056;2023-02-19T08:08:28;2.53;;;1.40;;
47589;SDS011;33316;52.298;9.056;2023-02-19T08:10:58;2.17;;;1.30;;
47589;SDS011;33316;52.298;9.056;2023-02-19T08:13:42;1.45;;;1.30;;
47589;SDS011;33316;52.298;9.056;2023-02-19T08:16:10;2.85;;;1.30;;
47589;SDS011;33316;52.298;9.056;2023-02-19T08:18:41;3.03;;;1.60;;
47589;SDS011;33316;52.298;9.056;2023-02-19T08:21:08;2.35;;;1.50;;
47589;SDS011;33316;52.298;9.056;2023-02-19T08:23:35;3.00;;;1.35;;
47589;SDS011;33316;52.298;9.056;2023-02-19T08:26:02;2.08;;;1.42;;
47589;SDS011;33316;52.298;9.056;2023-02-19T08:28:30;2.65;;;1.38;;
47589;SDS011;33316;52.298;9.056;2023-02-19T08:30:58;2.45;;;1.58;;
47589;SDS011;33316;52.298;9.056;2023-02-19T08:33:26;2.63;;;1.63;;
47589;SDS011;33316;52.298;9.056;2023-02-19T08:35:54;2.10;;;1.55;;
47589;SDS011;33316;52.298;9.056;2023-02-19T08:38:21;2.53;;;2.00;;
47589;SDS011;33316;52.298;9.056;2023-02-19T08:40:48;2.60;;;1.30;;
47589;SDS011;33316;52.298;9.056;2023-02-19T08:43:15;2.92;;;1.50;;
47589;SDS011;33316;52.298;9.056;2023-02-19T08:45:43;3.30;;;1.50;;
47589;SDS011;33316;52.298;9.056;2023-02-19T08:48:12;5.25;;;2.50;;
47589;SDS011;33316;52.298;9.056;2023-02-19T08:50:39;4.25;;;2.28;;
47589;SDS011;33316;52.298;9.056;2023-02-19T08:53:07;3.53;;;1.40;;
47589;SDS011;33316;52.298;9.056;2023-02-19T08:55:35;3.00;;;1.00;;
47589;SDS011;33316;52.298;9.056;2023-02-19T08:58:03;2.50;;;1.02;;
47589;SDS011;33316;52.298;9.056;2023-02-19T09:00:30;2.20;;;1.00;;
47589;SDS011;33316;52.298;9.056;2023-02-19T09:02:57;2.67;;;0.98;;
47589;SDS011;33316;52.298;9.056;2023-02-19T09:05:23;1.75;;;1.30;;
47589;SDS011;33316;52.298;9.056;2023-02-19T09:07:50;3.05;;;1.50;;
47589;SDS011;33316;52.298;9.056;2023-02-19T09:10:18;1.58;;;1.00;;
47589;SDS011;33316;52.298;9.056;2023-02-19T09:12:45;2.15;;;1.15;;
47589;SDS011;33316;52.298;9.056;2023-02-19T09:15:12;2.28;;;1.05;;
47589;SDS011;33316;52.298;9.056;2023-02-19T09:17:38;2.55;;;1.02;;
47589;SDS011;33316;52.298;9.056;2023-02-19T09:20:05;1.85;;;1.35;;
47589;SDS011;33316;52.298;9.056;2023-02-19T09:22:33;3.55;;;1.35;;
47589;SDS011;33316;52.298;9.056;2023-02-19T09:25:00;1.55;;;1.08;;
47589;SDS011;33316;52.298;9.056;2023-02-19T09:27:28;1.77;;;1.05;;
47589;SDS011;33316;52.298;9.056;2023-02-19T09:29:56;1.77;;;1.00;;
47589;SDS011;33316;52.298;9.056;2023-02-19T09:32:22;3.55;;;1.20;;
47589;SDS011;33316;52.298;9.056;2023-02-19T09:34:49;2.17;;;0.80;;
47589;SDS011;33316;52.298;9.056;2023-02-19T09:37:16;2.65;;;1.13;;
47589;SDS011;33316;52.298;9.056;2023-02-19T09:39:42;1.38;;;1.05;;
47589;SDS011;33316;52.298;9.056;2023-02-19T09:42:10;2.42;;;1.10;;
47589;SDS011;33316;52.298;9.056;2023-02-19T09:47:12;1.75;;;1.15;;
47589;SDS011;33316;52.298;9.056;2023-02-19T09:49:42;1.20;;;1.10;;
47589;SDS011;33316;52.298;9.056;2023-02-19T09:52:14;2.47;;;1.10;;
47589;SDS011;33316;52.298;9.056;2023-02-19T09:54:46;2.80;;;1.40;;
47589;SDS011;33316;52.298;9.056;2023-02-19T09:57:14;2.50;;;1.67;;
47589;SDS011;33316;52.298;9.056;2023-02-19T09:59:45;2.38;;;1.55;;
47589;SDS011;33316;52.298;9.056;2023-02-19T10:02:14;2.10;;;1.40;;
47589;SDS011;33316;52.298;9.056;2023-02-19T10:04:43;1.42;;;1.25;;
47589;SDS011;33316;52.298;9.056;2023-02-19T10:07:11;1.35;;;1.10;;
47589;SDS011;33316;52.298;9.056;2023-02-19T10:09:39;1.42;;;1.20;;
47589;SDS011;33316;52.298;9.056;2023-02-19T10:12:11;2.22;;;1.30;;
47589;SDS011;33316;52.298;9.056;2023-02-19T10:14:40;3.90;;;1.58;;
47589;SDS011;33316;52.298;9.056;2023-02-19T10:17:12;3.05;;;1.98;;
47589;SDS011;33316;52.298;9.056;2023-02-19T10:19:47;3.88;;;2.00;;
47589;SDS011;33316;52.298;9.056;2023-02-19T10:22:14;1.60;;;1.40;;
47589;SDS011;33316;52.298;9.056;2023-02-19T10:24:41;1.58;;;1.13;;
47589;SDS011;33316;52.298;9.056;2023-02-19T10:27:10;2.00;;;1.10;;
47589;SDS011;33316;52.298;9.056;2023-02-19T10:29:38;1.83;;;0.93;;
47589;SDS011;33316;52.298;9.056;2023-02-19T10:32:12;2.65;;;1.10;;
47589;SDS011;33316;52.298;9.056;2023-02-19T10:34:42;1.70;;;1.08;;
47589;SDS011;33316;52.298;9.056;2023-02-19T10:37:10;1.33;;;1.05;;
47589;SDS011;33316;52.298;9.056;2023-02-19T10:39:41;1.98;;;1.30;;
47589;SDS011;33316;52.298;9.056;2023-02-19T10:42:14;2.45;;;1.17;;
47589;SDS011;33316;52.298;9.056;2023-02-19T10:44:43;2.13;;;1.33;;
47589;SDS011;33316;52.298;9.056;2023-02-19T10:47:15;1.75;;;1.10;;
47589;SDS011;33316;52.298;9.056;2023-02-19T10:49:44;1.52;;;1.10;;
47589;SDS011;33316;52.298;9.056;2023-02-19T10:52:14;1.70;;;0.98;;
47589;SDS011;33316;52.298;9.056;2023-02-19T10:54:45;1.88;;;1.00;;
47589;SDS011;33316;52.298;9.056;2023-02-19T10:57:26;1.38;;;1.05;;
47589;SDS011;33316;52.298;9.056;2023-02-19T10:59:59;1.63;;;1.08;;
47589;SDS011;33316;52.298;9.056;2023-02-19T11:02:29;2.53;;;1.35;;
47589;SDS011;33316;52.298;9.056;2023-02-19T11:07:45;1.70;;;1.00;;
47589;SDS011;33316;52.298;9.056;2023-02-19T11:10:18;4.32;;;1.35;;
47589;SDS011;33316;52.298;9.056;2023-02-19T11:12:49;1.67;;;1.00;;
47589;SDS011;33316;52.298;9.056;2023-02-19T11:15:19;7.00;;;3.70;;
47589;SDS011;33316;52.298;9.056;2023-02-19T11:17:56;5.22;;;2.58;;
47589;SDS011;33316;52.298;9.056;2023-02-19T11:20:25;3.20;;;1.70;;
47589;SDS011;33316;52.298;9.056;2023-02-19T11:22:55;2.03;;;1.35;;
47589;SDS011;33316;52.298;9.056;2023-02-19T11:25:24;2.10;;;1.33;;
47589;SDS011;33316;52.298;9.056;2023-02-19T11:27:59;1.98;;;1.00;;
47589;SDS011;33316;52.298;9.056;2023-02-19T11:30:32;2.10;;;0.90;;
47589;SDS011;33316;52.298;9.056;2023-02-19T11:33:23;1.83;;;1.20;;
47589;SDS011;33316;52.298;9.056;2023-02-19T11:35:53;1.38;;;0.98;;
47589;SDS011;33316;52.298;9.056;2023-02-19T11:38:25;1.23;;;0.98;;
47589;SDS011;33316;52.298;9.056;2023-02-19T11:40:56;1.48;;;1.20;;
47589;SDS011;33316;52.298;9.056;2023-02-19T11:43:33;2.53;;;1.70;;
47589;SDS011;33316;52.298;9.056;2023-02-19T11:46:17;1.98;;;1.48;;
47589;SDS011;33316;52.298;9.056;2023-02-19T11:48:53;2.55;;;1.88;;
47589;SDS011;33316;52.298;9.056;2023-02-19T11:51:35;2.97;;;2.20;;
47589;SDS011;33316;52.298;9.056;2023-02-19T11:54:21;2.38;;;1.90;;
47589;SDS011;33316;52.298;9.056;2023-02-19T11:57:07;3.88;;;2.08;;
47589;SDS011;33316;52.298;9.056;2023-02-19T11:59:41;3.20;;;2.78;;
47589;SDS011;33316;52.298;9.056;2023-02-19T12:02:17;2.53;;;1.90;;
47589;SDS011;33316;52.298;9.056;2023-02-19T12:05:07;2.83;;;2.15;;
47589;SDS011;33316;52.298;9.056;2023-02-19T12:07:58;3.30;;;2.72;;
47589;SDS011;33316;52.298;9.056;2023-02-19T12:10:51;3.47;;;2.72;;
47589;SDS011;33316;52.298;9.056;2023-02-19T12:13:31;3.80;;;2.70;;
47589;SDS011;33316;52.298;9.056;2023-02-19T12:16:09;4.10;;;2.92;;
47589;SDS011;33316;52.298;9.056;2023-02-19T12:19:05;2.65;;;2.25;;
47589;SDS011;33316;52.298;9.056;2023-02-19T12:21:49;3.08;;;2.42;;
47589;SDS011;33316;52.298;9.056;2023-02-19T12:27:35;4.15;;;2.22;;
47589;SDS011;33316;52.298;9.056;2023-02-19T12:30:18;2.78;;;2.10;;
47589;SDS011;33316;52.298;9.056;2023-02-19T12:33:04;2.63;;;2.03;;
47589;SDS011;33316;52.298;9.056;2023-02-19T12:35:50;3.47;;;2.40;;
47589;SDS011;33316;52.298;9.056;2023-02-19T12:38:28;3.22;;;2.92;;
47589;SDS011;33316;52.298;9.056;2023-02-19T12:41:17;2.90;;;2.50;;
47589;SDS011;33316;52.298;9.056;2023-02-19T12:43:52;3.53;;;2.58;;
47589;SDS011;33316;52.298;9.056;2023-02-19T12:46:24;2.95;;;2.17;;
47589;SDS011;33316;52.298;9.056;2023-02-19T12:48:57;2.60;;;1.80;;
47589;SDS011;33316;52.298;9.056;2023-02-19T12:51:31;2.08;;;1.58;;
47589;SDS011;33316;52.298;9.056;2023-02-19T12:54:05;3.28;;;2.22;;
47589;SDS011;33316;52.298;9.056;2023-02-19T12:56:38;2.63;;;1.73;;
47589;SDS011;33316;52.298;9.056;2023-02-19T12:59:09;2.17;;;1.58;;
47589;SDS011;33316;52.298;9.056;2023-02-19T13:01:42;2.10;;;1.40;;
47589;SDS011;33316;52.298;9.056;2023-02-19T13:04:17;2.03;;;1.02;;
47589;SDS011;33316;52.298;9.056;2023-02-19T13:06:50;1.48;;;1.17;;
47589;SDS011;33316;52.298;9.056;2023-02-19T13:09:23;1.60;;;1.08;;
47589;SDS011;33316;52.298;9.056;2023-02-19T13:11:54;2.38;;;1.27;;
47589;SDS011;33316;52.298;9.056;2023-02-19T13:14:25;3.58;;;1.40;;
47589;SDS011;33316;52.298;9.056;2023-02-19T13:16:55;1.98;;;1.20;;
47589;SDS011;33316;52.298;9.056;2023-02-19T13:19:25;2.05;;;1.42;;
47589;SDS011;33316;52.298;9.056;2023-02-19T13:21:57;1.55;;;1.17;;
47589;SDS011;33316;52.298;9.056;2023-02-19T13:24:49;2.10;;;1.38;;
47589;SDS011;33316;52.298;9.056;2023-02-19T13:27:27;2.25;;;1.33;;
47589;SDS011;33316;52.298;9.056;2023-02-19T13:30:11;1.98;;;1.30;;
47589;SDS011;33316;52.298;9.056;2023-02-19T13:32:52;2.35;;;1.38;;
47589;SDS011;33316;52.298;9.056;2023-02-19T13:35:27;3.15;;;1.40;;
47589;SDS011;33316;52.298;9.056;2023-02-19T13:38:11;1.63;;;1.05;;
47589;SDS011;33316;52.298;9.056;2023-02-19T13:40:40;3.30;;;1.20;;
47589;SDS011;33316;52.298;9.056;2023-02-19T13:43:19;1.23;;;0.95;;
47589;SDS011;33316;52.298;9.056;2023-02-19T13:45:52;2.35;;;1.20;;
47589;SDS011;33316;52.298;9.056;2023-02-19T13:48:24;6.55;;;1.92;;
47589;SDS011;33316;52.298;9.056;2023-02-19T13:53:56;3.05;;;1.50;;
47589;SDS011;33316;52.298;9.056;2023-02-19T13:56:38;2.83;;;1.50;;
47589;SDS011;33316;52.298;9.056;2023-02-19T14:04:52;1.73;;;1.10;;
47589;SDS011;33316;52.298;9.056;2023-02-19T14:07:21;2.03;;;1.10;;
47589;SDS011;33316;52.298;9.056;2023-02-19T14:10:11;2.20;;;1.13;;
47589;SDS011;33316;52.298;9.056;2023-02-19T14:12:59;1.30;;;0.90;;
47589;SDS011;33316;52.298;9.056;2023-02-19T14:15:36;1.80;;;1.20;;
47589;SDS011;33316;52.298;9.056;2023-02-19T14:21:06;3.53;;;1.98;;
47589;SDS011;33316;52.298;9.056;2023-02-19T14:23:40;3.28;;;1.95;;
47589;SDS011;33316;52.298;9.056;2023-02-19T14:26:07;3.40;;;1.85;;
47589;SDS011;33316;52.298;9.056;2023-02-19T14:28:38;3.08;;;1.80;;
47589;SDS011;33316;52.298;9.056;2023-02-19T14:31:10;2.05;;;1.50;;
47589;SDS011;33316;52.298;9.056;2023-02-19T14:33:45;2.83;;;1.63;;
47589;SDS011;33316;52.298;9.056;2023-02-19T14:36:16;2.55;;;1.85;;
47589;SDS011;33316;52.298;9.056;2023-02-19T14:38:49;2.40;;;1.45;;
47589;SDS011;33316;52.298;9.056;2023-02-19T14:41:18;2.58;;;1.48;;
47589;SDS011;33316;52.298;9.056;2023-02-19T14:43:49;2.20;;;1.20;;
47589;SDS011;33316;52.298;9.056;2023-02-19T14:46:19;2.78;;;1.38;;
47589;SDS011;33316;52.298;9.056;2023-02-19T14:48:52;1.98;;;1.10;;
47589;SDS011;33316;52.298;9.056;2023-02-19T14:51:22;2.20;;;1.15;;
47589;SDS011;33316;52.298;9.056;2023-02-19T14:53:55;3.38;;;1.98;;
47589;SDS011;33316;52.298;9.056;2023-02-19T14:56:24;2.55;;;1.40;;
47589;SDS011;33316;52.298;9.056;2023-02-19T14:59:14;2.78;;;1.80;;
47589;SDS011;33316;52.298;9.056;2023-02-19T15:01:52;3.17;;;2.10;;
47589;SDS011;33316;52.298;9.056;2023-02-19T15:04:20;2.70;;;1.80;;
47589;SDS011;33316;52.298;9.056;2023-02-19T15:06:48;2.75;;;1.70;;
47589;SDS011;33316;52.298;9.056;2023-02-19T15:09:17;2.10;;;1.55;;
47589;SDS011;33316;52.298;9.056;2023-02-19T15:11:46;3.00;;;1.65;;
47589;SDS011;33316;52.298;9.056;2023-02-19T15:14:18;3.03;;;1.98;;
47589;SDS011;33316;52.298;9.056;2023-02-19T15:16:47;3.95;;;2.05;;
47589;SDS011;33316;52.298;9.056;2023-02-19T15:19:18;3.13;;;2.20;;
47589;SDS011;33316;52.298;9.056;2023-02-19T15:21:45;1.98;;;1.35;;
47589;SDS011;33316;52.298;9.056;2023-02-19T15:24:14;2.10;;;1.55;;
47589;SDS011;33316;52.298;9.056;2023-02-19T15:26:46;2.72;;;1.55;;
47589;SDS011;33316;52.298;9.056;2023-02-19T15:29:16;2.45;;;1.65;;
47589;SDS011;33316;52.298;9.056;2023-02-19T15:31:44;2.83;;;1.35;;
47589;SDS011;33316;52.298;9.056;2023-02-19T15:34:18;2.72;;;1.48;;
47589;SDS011;33316;52.298;9.056;2023-02-19T15:36:47;2.25;;;1.60;;
47589;SDS011;33316;52.298;9.056;2023-02-19T15:39:18;2.55;;;1.63;;
47589;SDS011;33316;52.298;9.056;2023-02-19T15:44:25;2.85;;;1.80;;
47589;SDS011;33316;52.298;9.056;2023-02-19T15:47:01;4.38;;;2.00;;